sensor_id;sensor_type;location;lat;lon;timestamp;temperature;humidity
62575;DHT22;70119;45.638;11.714;2023-09-19T00:01:33;31.40;48.50
62575;DHT22;70119;45.638;11.714;2023-09-19T00:03:59;31.40;48.40
62575;DHT22;70119;45.638;11.714;2023-09-19T00:06:29;31.40;48.30
62575;DHT22;70119;45.638;11.714;2023-09-19T00:08:57;31.40;48.30
62575;DHT22;70119;45.638;11.714;2023-09-19T00:11:26;31.40;48.20
62575;DHT22;70119;45.638;11.714;2023-09-19T00:13:52;31.40;48.10
62575;DHT22;70119;45.638;11.714;2023-09-19T00:16:19;31.40;48.10
62575;DHT22;70119;45.638;11.714;2023-09-19T00:18:45;31.40;48.10
62575;DHT22;70119;45.638;11.714;2023-09-19T00:21:11;31.40;48.10
62575;DHT22;70119;45.638;11.714;2023-09-19T00:23:38;31.40;48.10
62575;DHT22;70119;45.638;11.714;2023-09-19T00:26:06;31.50;47.70
62575;DHT22;70119;45.638;11.714;2023-09-19T00:28:32;31.60;47.60
62575;DHT22;70119;45.638;11.714;2023-09-19T00:30:58;31.60;47.40
62575;DHT22;70119;45.638;11.714;2023-09-19T00:33:28;31.60;47.40
62575;DHT22;70119;45.638;11.714;2023-09-19T00:35:56;31.60;47.40
62575;DHT22;70119;45.638;11.714;2023-09-19T00:38:25;31.40;47.80
62575;DHT22;70119;45.638;11.714;2023-09-19T00:40:54;31.40;47.80
62575;DHT22;70119;45.638;11.714;2023-09-19T00:43:25;31.40;47.90
62575;DHT22;70119;45.638;11.714;2023-09-19T00:45:53;31.60;47.40
62575;DHT22;70119;45.638;11.714;2023-09-19T00:48:20;31.70;47.30
62575;DHT22;70119;45.638;11.714;2023-09-19T00:50:48;31.70;47.20
62575;DHT22;70119;45.638;11.714;2023-09-19T00:53:18;31.70;47.10
62575;DHT22;70119;45.638;11.714;2023-09-19T00:55:47;31.70;47.00
62575;DHT22;70119;45.638;11.714;2023-09-19T00:58:14;31.70;47.00
62575;DHT22;70119;45.638;11.714;2023-09-19T01:00:40;31.70;46.90
62575;DHT22;70119;45.638;11.714;2023-09-19T01:03:07;31.80;46.80
62575;DHT22;70119;45.638;11.714;2023-09-19T01:05:37;31.80;46.60
62575;DHT22;70119;45.638;11.714;2023-09-19T01:08:11;31.90;46.40
62575;DHT22;70119;45.638;11.714;2023-09-19T01:10:59;32.00;46.20
62575;DHT22;70119;45.638;11.714;2023-09-19T01:13:44;31.60;47.00
62575;DHT22;70119;45.638;11.714;2023-09-19T01:29:46;31.30;47.60
62575;DHT22;70119;45.638;11.714;2023-09-19T01:32:17;31.20;47.60
62575;DHT22;70119;45.638;11.714;2023-09-19T01:37:19;31.20;47.80
62575;DHT22;70119;45.638;11.714;2023-09-19T01:39:54;31.20;47.60
62575;DHT22;70119;45.638;11.714;2023-09-19T01:42:43;31.20;47.60
62575;DHT22;70119;45.638;11.714;2023-09-19T01:45:32;31.20;47.50
62575;DHT22;70119;45.638;11.714;2023-09-19T01:51:02;31.20;47.40
62575;DHT22;70119;45.638;11.714;2023-09-19T01:54:02;31.20;47.30
62575;DHT22;70119;45.638;11.714;2023-09-19T01:56:40;31.20;47.10
62575;DHT22;70119;45.638;11.714;2023-09-19T01:59:11;31.20;47.20
62575;DHT22;70119;45.638;11.714;2023-09-19T02:01:39;31.20;47.20
62575;DHT22;70119;45.638;11.714;2023-09-19T02:04:07;31.20;47.10
62575;DHT22;70119;45.638;11.714;2023-09-19T02:06:33;31.20;47.20
62575;DHT22;70119;45.638;11.714;2023-09-19T02:08:59;31.20;47.20
62575;DHT22;70119;45.638;11.714;2023-09-19T02:11:25;31.20;47.10
62575;DHT22;70119;45.638;11.714;2023-09-19T02:13:51;31.20;47.10
62575;DHT22;70119;45.638;11.714;2023-09-19T02:16:20;31.20;47.00
62575;DHT22;70119;45.638;11.714;2023-09-19T02:18:48;31.20;46.90
62575;DHT22;70119;45.638;11.714;2023-09-19T02:21:15;31.20;46.90
62575;DHT22;70119;45.638;11.714;2023-09-19T02:23:42;31.10;46.80
62575;DHT22;70119;45.638;11.714;2023-09-19T02:26:09;31.10;46.80
62575;DHT22;70119;45.638;11.714;2023-09-19T02:28:35;31.10;46.80
62575;DHT22;70119;45.638;11.714;2023-09-19T02:31:01;31.10;46.80
62575;DHT22;70119;45.638;11.714;2023-09-19T02:33:28;31.10;46.80
62575;DHT22;70119;45.638;11.714;2023-09-19T02:35:58;31.10;46.70
62575;DHT22;70119;45.638;11.714;2023-09-19T02:38:25;31.10;46.70
62575;DHT22;70119;45.638;11.714;2023-09-19T02:40:52;31.10;46.60
62575;DHT22;70119;45.638;11.714;2023-09-19T02:43:18;31.10;46.70
62575;DHT22;70119;45.638;11.714;2023-09-19T02:45:45;31.10;46.70
62575;DHT22;70119;45.638;11.714;2023-09-19T02:48:12;31.10;46.70
62575;DHT22;70119;45.638;11.714;2023-09-19T02:50:38;31.10;46.60
62575;DHT22;70119;45.638;11.714;2023-09-19T02:53:06;31.10;46.50
62575;DHT22;70119;45.638;11.714;2023-09-19T02:55:33;31.10;46.40
62575;DHT22;70119;45.638;11.714;2023-09-19T02:57:59;31.10;46.40
62575;DHT22;70119;45.638;11.714;2023-09-19T03:00:27;31.10;46.40
62575;DHT22;70119;45.638;11.714;2023-09-19T03:02:54;31.10;46.40
62575;DHT22;70119;45.638;11.714;2023-09-19T03:05:22;31.10;46.40
62575;DHT22;70119;45.638;11.714;2023-09-19T03:07:49;31.00;46.40
62575;DHT22;70119;45.638;11.714;2023-09-19T03:10:17;31.00;46.40
62575;DHT22;70119;45.638;11.714;2023-09-19T03:12:43;31.00;46.40
62575;DHT22;70119;45.638;11.714;2023-09-19T03:15:09;31.00;46.40
62575;DHT22;70119;45.638;11.714;2023-09-19T03:17:35;31.10;46.30
62575;DHT22;70119;45.638;11.714;2023-09-19T03:20:02;31.10;46.30
62575;DHT22;70119;45.638;11.714;2023-09-19T03:22:29;31.10;46.10
62575;DHT22;70119;45.638;11.714;2023-09-19T03:24:55;31.10;46.10
62575;DHT22;70119;45.638;11.714;2023-09-19T03:27:21;31.00;46.20
62575;DHT22;70119;45.638;11.714;2023-09-19T03:29:47;31.00;46.10
62575;DHT22;70119;45.638;11.714;2023-09-19T03:32:13;31.00;46.10
62575;DHT22;70119;45.638;11.714;2023-09-19T03:34:39;31.00;46.00
62575;DHT22;70119;45.638;11.714;2023-09-19T03:37:09;31.00;46.00
62575;DHT22;70119;45.638;11.714;2023-09-19T03:39:35;31.00;46.00
62575;DHT22;70119;45.638;11.714;2023-09-19T03:42:01;31.00;46.00
62575;DHT22;70119;45.638;11.714;2023-09-19T03:44:30;31.00;45.90
62575;DHT22;70119;45.638;11.714;2023-09-19T03:46:56;31.00;46.00
62575;DHT22;70119;45.638;11.714;2023-09-19T03:49:22;31.00;45.90
62575;DHT22;70119;45.638;11.714;2023-09-19T03:51:48;31.00;45.90
62575;DHT22;70119;45.638;11.714;2023-09-19T03:54:14;31.00;45.80
62575;DHT22;70119;45.638;11.714;2023-09-19T03:56:40;31.00;45.70
62575;DHT22;70119;45.638;11.714;2023-09-19T03:59:06;31.00;45.70
62575;DHT22;70119;45.638;11.714;2023-09-19T04:01:34;31.00;45.60
62575;DHT22;70119;45.638;11.714;2023-09-19T04:03:59;31.00;45.70
62575;DHT22;70119;45.638;11.714;2023-09-19T04:06:34;30.90;45.60
62575;DHT22;70119;45.638;11.714;2023-09-19T04:09:01;30.90;45.60
62575;DHT22;70119;45.638;11.714;2023-09-19T04:11:31;30.90;45.50
62575;DHT22;70119;45.638;11.714;2023-09-19T04:13:57;30.90;45.50
62575;DHT22;70119;45.638;11.714;2023-09-19T04:16:23;30.90;45.50
62575;DHT22;70119;45.638;11.714;2023-09-19T04:18:49;30.90;45.40
62575;DHT22;70119;45.638;11.714;2023-09-19T04:21:14;30.90;45.30
62575;DHT22;70119;45.638;11.714;2023-09-19T04:23:40;30.90;45.30
62575;DHT22;70119;45.638;11.714;2023-09-19T04:26:06;30.90;45.20
62575;DHT22;70119;45.638;11.714;2023-09-19T04:28:32;30.90;45.20
62575;DHT22;70119;45.638;11.714;2023-09-19T04:31:00;30.90;45.10
62575;DHT22;70119;45.638;11.714;2023-09-19T04:33:27;30.90;45.10
62575;DHT22;70119;45.638;11.714;2023-09-19T04:35:53;30.90;45.10
62575;DHT22;70119;45.638;11.714;2023-09-19T04:38:20;30.90;45.10
62575;DHT22;70119;45.638;11.714;2023-09-19T04:40:46;30.80;45.00
62575;DHT22;70119;45.638;11.714;2023-09-19T04:43:12;30.90;45.10
62575;DHT22;70119;45.638;11.714;2023-09-19T04:45:39;30.80;45.00
62575;DHT22;70119;45.638;11.714;2023-09-19T04:48:06;30.80;45.00
62575;DHT22;70119;45.638;11.714;2023-09-19T04:50:35;30.80;45.00
62575;DHT22;70119;45.638;11.714;2023-09-19T04:53:01;30.80;44.90
62575;DHT22;70119;45.638;11.714;2023-09-19T04:55:28;30.80;45.00
62575;DHT22;70119;45.638;11.714;2023-09-19T04:57:56;30.80;45.00
62575;DHT22;70119;45.638;11.714;2023-09-19T05:00:22;30.80;44.90
62575;DHT22;70119;45.638;11.714;2023-09-19T05:02:55;30.80;44.80
62575;DHT22;70119;45.638;11.714;2023-09-19T05:05:25;30.80;44.70
62575;DHT22;70119;45.638;11.714;2023-09-19T05:07:52;30.80;44.70
62575;DHT22;70119;45.638;11.714;2023-09-19T05:10:21;30.80;44.80
62575;DHT22;70119;45.638;11.714;2023-09-19T05:12:47;30.80;44.70
62575;DHT22;70119;45.638;11.714;2023-09-19T05:15:16;30.70;44.70
62575;DHT22;70119;45.638;11.714;2023-09-19T05:17:48;30.70;44.80
62575;DHT22;70119;45.638;11.714;2023-09-19T05:20:15;30.70;44.80
62575;DHT22;70119;45.638;11.714;2023-09-19T05:22:42;30.70;44.80
62575;DHT22;70119;45.638;11.714;2023-09-19T05:25:09;30.80;44.80
62575;DHT22;70119;45.638;11.714;2023-09-19T05:27:35;30.70;44.70
62575;DHT22;70119;45.638;11.714;2023-09-19T05:30:01;30.80;44.60
62575;DHT22;70119;45.638;11.714;2023-09-19T05:32:28;30.80;44.50
62575;DHT22;70119;45.638;11.714;2023-09-19T05:34:54;30.80;44.40
62575;DHT22;70119;45.638;11.714;2023-09-19T05:37:22;30.80;44.30
62575;DHT22;70119;45.638;11.714;2023-09-19T05:39:50;30.90;44.30
62575;DHT22;70119;45.638;11.714;2023-09-19T05:42:18;30.90;44.30
62575;DHT22;70119;45.638;11.714;2023-09-19T05:44:44;30.90;44.20
62575;DHT22;70119;45.638;11.714;2023-09-19T05:47:11;30.90;44.20
62575;DHT22;70119;45.638;11.714;2023-09-19T05:49:38;30.90;44.20
62575;DHT22;70119;45.638;11.714;2023-09-19T05:52:07;30.90;44.30
62575;DHT22;70119;45.638;11.714;2023-09-19T05:54:33;30.90;44.50
62575;DHT22;70119;45.638;11.714;2023-09-19T05:57:01;30.90;44.80
62575;DHT22;70119;45.638;11.714;2023-09-19T05:59:29;30.90;45.40
62575;DHT22;70119;45.638;11.714;2023-09-19T06:01:55;30.90;45.50
62575;DHT22;70119;45.638;11.714;2023-09-19T06:04:21;30.90;45.40
62575;DHT22;70119;45.638;11.714;2023-09-19T06:06:48;31.00;45.30
62575;DHT22;70119;45.638;11.714;2023-09-19T06:09:17;31.10;45.30
62575;DHT22;70119;45.638;11.714;2023-09-19T06:11:45;31.10;45.30
62575;DHT22;70119;45.638;11.714;2023-09-19T06:14:14;31.10;45.50
62575;DHT22;70119;45.638;11.714;2023-09-19T06:16:43;31.10;45.50
62575;DHT22;70119;45.638;11.714;2023-09-19T06:19:09;31.00;45.60
62575;DHT22;70119;45.638;11.714;2023-09-19T06:21:36;31.00;45.70
62575;DHT22;70119;45.638;11.714;2023-09-19T06:24:03;31.00;45.80
62575;DHT22;70119;45.638;11.714;2023-09-19T06:26:31;30.90;45.90
62575;DHT22;70119;45.638;11.714;2023-09-19T06:29:00;31.00;45.90
62575;DHT22;70119;45.638;11.714;2023-09-19T06:31:34;31.00;45.90
62575;DHT22;70119;45.638;11.714;2023-09-19T06:34:02;30.90;46.00
62575;DHT22;70119;45.638;11.714;2023-09-19T06:36:30;31.00;46.10
62575;DHT22;70119;45.638;11.714;2023-09-19T06:38:56;31.00;46.10
62575;DHT22;70119;45.638;11.714;2023-09-19T06:41:22;31.00;46.20
62575;DHT22;70119;45.638;11.714;2023-09-19T06:43:51;31.00;46.30
62575;DHT22;70119;45.638;11.714;2023-09-19T06:46:22;31.00;46.30
62575;DHT22;70119;45.638;11.714;2023-09-19T06:48:51;31.00;46.30
62575;DHT22;70119;45.638;11.714;2023-09-19T06:51:18;31.10;46.20
62575;DHT22;70119;45.638;11.714;2023-09-19T06:53:44;30.90;46.60
62575;DHT22;70119;45.638;11.714;2023-09-19T06:56:10;30.90;46.70
62575;DHT22;70119;45.638;11.714;2023-09-19T06:58:36;30.50;48.00
62575;DHT22;70119;45.638;11.714;2023-09-19T07:01:02;30.80;47.20
62575;DHT22;70119;45.638;11.714;2023-09-19T07:03:28;31.10;46.50
62575;DHT22;70119;45.638;11.714;2023-09-19T07:05:54;31.30;46.20
62575;DHT22;70119;45.638;11.714;2023-09-19T07:08:21;31.40;46.30
62575;DHT22;70119;45.638;11.714;2023-09-19T07:10:47;31.40;46.60
62575;DHT22;70119;45.638;11.714;2023-09-19T07:13:18;31.50;46.70
62575;DHT22;70119;45.638;11.714;2023-09-19T07:15:44;31.50;46.50
62575;DHT22;70119;45.638;11.714;2023-09-19T07:18:14;31.50;46.20
62575;DHT22;70119;45.638;11.714;2023-09-19T07:20:42;31.40;47.40
62575;DHT22;70119;45.638;11.714;2023-09-19T07:23:11;31.40;47.30
62575;DHT22;70119;45.638;11.714;2023-09-19T07:25:40;31.40;47.30
62575;DHT22;70119;45.638;11.714;2023-09-19T07:28:06;31.50;46.80
62575;DHT22;70119;45.638;11.714;2023-09-19T07:30:35;31.60;46.60
62575;DHT22;70119;45.638;11.714;2023-09-19T07:33:02;31.50;47.40
62575;DHT22;70119;45.638;11.714;2023-09-19T07:35:31;31.40;47.90
62575;DHT22;70119;45.638;11.714;2023-09-19T07:37:57;31.40;47.80
62575;DHT22;70119;45.638;11.714;2023-09-19T07:40:27;31.50;47.80
62575;DHT22;70119;45.638;11.714;2023-09-19T07:42:55;31.50;47.50
62575;DHT22;70119;45.638;11.714;2023-09-19T07:45:21;31.50;47.70
62575;DHT22;70119;45.638;11.714;2023-09-19T07:47:49;31.10;48.80
62575;DHT22;70119;45.638;11.714;2023-09-19T07:50:16;31.40;48.50
62575;DHT22;70119;45.638;11.714;2023-09-19T07:52:44;31.40;48.70
62575;DHT22;70119;45.638;11.714;2023-09-19T07:55:10;31.40;48.40
62575;DHT22;70119;45.638;11.714;2023-09-19T07:57:42;31.50;48.30
62575;DHT22;70119;45.638;11.714;2023-09-19T08:00:10;31.50;48.20
62575;DHT22;70119;45.638;11.714;2023-09-19T08:02:37;31.30;48.70
62575;DHT22;70119;45.638;11.714;2023-09-19T08:05:07;31.40;48.60
62575;DHT22;70119;45.638;11.714;2023-09-19T08:07:37;31.50;48.20
62575;DHT22;70119;45.638;11.714;2023-09-19T08:10:07;31.40;48.60
62575;DHT22;70119;45.638;11.714;2023-09-19T08:12:36;31.30;48.60
62575;DHT22;70119;45.638;11.714;2023-09-19T08:15:03;31.50;48.00
62575;DHT22;70119;45.638;11.714;2023-09-19T08:17:34;31.60;47.90
62575;DHT22;70119;45.638;11.714;2023-09-19T08:20:00;31.60;48.10
62575;DHT22;70119;45.638;11.714;2023-09-19T08:22:27;31.60;48.20
62575;DHT22;70119;45.638;11.714;2023-09-19T08:24:53;31.70;48.00
62575;DHT22;70119;45.638;11.714;2023-09-19T08:27:19;31.80;47.70
62575;DHT22;70119;45.638;11.714;2023-09-19T08:29:46;31.90;47.20
62575;DHT22;70119;45.638;11.714;2023-09-19T08:32:12;31.90;47.40
62575;DHT22;70119;45.638;11.714;2023-09-19T08:34:38;31.90;47.30
62575;DHT22;70119;45.638;11.714;2023-09-19T08:37:04;32.00;47.00
62575;DHT22;70119;45.638;11.714;2023-09-19T08:39:30;32.00;47.30
62575;DHT22;70119;45.638;11.714;2023-09-19T08:41:59;31.90;47.50
62575;DHT22;70119;45.638;11.714;2023-09-19T08:44:26;31.90;47.50
62575;DHT22;70119;45.638;11.714;2023-09-19T08:47:09;31.90;47.40
62575;DHT22;70119;45.638;11.714;2023-09-19T08:52:19;32.00;47.50
62575;DHT22;70119;45.638;11.714;2023-09-19T08:54:48;32.10;47.20
62575;DHT22;70119;45.638;11.714;2023-09-19T08:57:18;31.90;48.10
62575;DHT22;70119;45.638;11.714;2023-09-19T08:59:48;31.90;47.80
62575;DHT22;70119;45.638;11.714;2023-09-19T09:02:16;31.90;47.70
62575;DHT22;70119;45.638;11.714;2023-09-19T09:04:45;32.00;47.70
62575;DHT22;70119;45.638;11.714;2023-09-19T09:07:12;32.00;47.60
62575;DHT22;70119;45.638;11.714;2023-09-19T09:09:44;32.00;47.70
62575;DHT22;70119;45.638;11.714;2023-09-19T09:12:14;32.00;47.50
62575;DHT22;70119;45.638;11.714;2023-09-19T09:14:45;32.00;47.60
62575;DHT22;70119;45.638;11.714;2023-09-19T09:17:12;32.10;47.60
62575;DHT22;70119;45.638;11.714;2023-09-19T09:19:38;32.00;47.60
62575;DHT22;70119;45.638;11.714;2023-09-19T09:22:11;32.10;47.50
62575;DHT22;70119;45.638;11.714;2023-09-19T09:24:37;32.00;47.60
62575;DHT22;70119;45.638;11.714;2023-09-19T09:27:16;32.10;47.40
62575;DHT22;70119;45.638;11.714;2023-09-19T09:29:47;32.20;47.00
62575;DHT22;70119;45.638;11.714;2023-09-19T09:32:22;32.10;47.20
62575;DHT22;70119;45.638;11.714;2023-09-19T09:34:52;32.10;47.50
62575;DHT22;70119;45.638;11.714;2023-09-19T09:37:19;32.30;46.90
62575;DHT22;70119;45.638;11.714;2023-09-19T09:39:50;32.20;47.30
62575;DHT22;70119;45.638;11.714;2023-09-19T09:42:36;32.20;47.90
62575;DHT22;70119;45.638;11.714;2023-09-19T09:45:14;32.10;47.40
62575;DHT22;70119;45.638;11.714;2023-09-19T09:47:47;32.10;47.40
62575;DHT22;70119;45.638;11.714;2023-09-19T09:50:30;32.30;46.90
62575;DHT22;70119;45.638;11.714;2023-09-19T09:53:22;32.30;46.80
62575;DHT22;70119;45.638;11.714;2023-09-19T09:56:06;32.30;47.00
62575;DHT22;70119;45.638;11.714;2023-09-19T09:58:34;32.30;46.70
62575;DHT22;70119;45.638;11.714;2023-09-19T10:01:01;32.20;47.40
62575;DHT22;70119;45.638;11.714;2023-09-19T10:03:46;32.10;47.50
62575;DHT22;70119;45.638;11.714;2023-09-19T10:06:17;32.20;47.40
62575;DHT22;70119;45.638;11.714;2023-09-19T10:09:18;32.20;47.20
62575;DHT22;70119;45.638;11.714;2023-09-19T10:11:49;32.20;46.90
62575;DHT22;70119;45.638;11.714;2023-09-19T10:14:29;32.30;47.20
62575;DHT22;70119;45.638;11.714;2023-09-19T10:16:58;32.30;47.00
62575;DHT22;70119;45.638;11.714;2023-09-19T10:19:36;32.40;46.70
62575;DHT22;70119;45.638;11.714;2023-09-19T10:22:02;32.50;46.50
62575;DHT22;70119;45.638;11.714;2023-09-19T10:24:30;32.60;46.30
62575;DHT22;70119;45.638;11.714;2023-09-19T10:26:59;32.50;46.30
62575;DHT22;70119;45.638;11.714;2023-09-19T10:29:28;32.40;47.00
62575;DHT22;70119;45.638;11.714;2023-09-19T10:31:58;32.40;47.00
62575;DHT22;70119;45.638;11.714;2023-09-19T10:34:25;32.40;47.20
62575;DHT22;70119;45.638;11.714;2023-09-19T10:36:53;32.40;47.10
62575;DHT22;70119;45.638;11.714;2023-09-19T10:39:19;32.40;47.20
62575;DHT22;70119;45.638;11.714;2023-09-19T10:41:53;32.30;47.30
62575;DHT22;70119;45.638;11.714;2023-09-19T10:44:24;32.40;47.30
62575;DHT22;70119;45.638;11.714;2023-09-19T10:46:53;32.50;46.70
62575;DHT22;70119;45.638;11.714;2023-09-19T10:49:22;32.40;46.60
62575;DHT22;70119;45.638;11.714;2023-09-19T10:51:53;32.40;46.60
62575;DHT22;70119;45.638;11.714;2023-09-19T10:54:26;32.40;46.70
62575;DHT22;70119;45.638;11.714;2023-09-19T10:56:54;32.50;46.50
62575;DHT22;70119;45.638;11.714;2023-09-19T10:59:21;32.50;46.80
62575;DHT22;70119;45.638;11.714;2023-09-19T11:01:49;32.40;46.90
62575;DHT22;70119;45.638;11.714;2023-09-19T11:04:32;32.40;46.90
62575;DHT22;70119;45.638;11.714;2023-09-19T11:07:13;32.50;46.80
62575;DHT22;70119;45.638;11.714;2023-09-19T11:09:51;32.50;46.90
62575;DHT22;70119;45.638;11.714;2023-09-19T11:26:50;32.60;46.00
62575;DHT22;70119;45.638;11.714;2023-09-19T11:29:27;32.70;45.70
62575;DHT22;70119;45.638;11.714;2023-09-19T11:31:55;32.70;45.70
62575;DHT22;70119;45.638;11.714;2023-09-19T11:34:37;32.60;45.90
62575;DHT22;70119;45.638;11.714;2023-09-19T11:40:06;32.70;45.60
62575;DHT22;70119;45.638;11.714;2023-09-19T11:42:46;32.80;45.30
62575;DHT22;70119;45.638;11.714;2023-09-19T11:48:15;32.70;45.50
62575;DHT22;70119;45.638;11.714;2023-09-19T11:50:45;32.70;45.20
62575;DHT22;70119;45.638;11.714;2023-09-19T11:53:13;32.70;45.20
62575;DHT22;70119;45.638;11.714;2023-09-19T11:55:41;32.70;45.30
62575;DHT22;70119;45.638;11.714;2023-09-19T11:58:09;32.70;45.40
62575;DHT22;70119;45.638;11.714;2023-09-19T12:00:38;32.80;45.00
62575;DHT22;70119;45.638;11.714;2023-09-19T12:03:10;32.80;44.80
62575;DHT22;70119;45.638;11.714;2023-09-19T12:05:37;32.90;44.70
62575;DHT22;70119;45.638;11.714;2023-09-19T12:08:07;32.70;45.10
62575;DHT22;70119;45.638;11.714;2023-09-19T12:10:48;32.60;45.10
62575;DHT22;70119;45.638;11.714;2023-09-19T12:13:20;32.60;45.20
62575;DHT22;70119;45.638;11.714;2023-09-19T12:15:48;32.60;45.30
62575;DHT22;70119;45.638;11.714;2023-09-19T12:18:30;32.50;45.50
62575;DHT22;70119;45.638;11.714;2023-09-19T12:20:57;32.50;45.40
62575;DHT22;70119;45.638;11.714;2023-09-19T12:23:24;32.50;45.60
62575;DHT22;70119;45.638;11.714;2023-09-19T12:25:52;32.50;45.60
62575;DHT22;70119;45.638;11.714;2023-09-19T12:28:20;32.40;45.60
62575;DHT22;70119;45.638;11.714;2023-09-19T12:30:54;32.50;45.70
62575;DHT22;70119;45.638;11.714;2023-09-19T12:33:28;32.40;45.70
62575;DHT22;70119;45.638;11.714;2023-09-19T12:35:56;32.50;45.70
62575;DHT22;70119;45.638;11.714;2023-09-19T12:38:25;32.50;45.70
62575;DHT22;70119;45.638;11.714;2023-09-19T12:40:55;32.50;45.70
62575;DHT22;70119;45.638;11.714;2023-09-19T12:43:22;32.50;45.70
62575;DHT22;70119;45.638;11.714;2023-09-19T12:45:48;32.50;45.70
62575;DHT22;70119;45.638;11.714;2023-09-19T12:48:21;32.50;45.70
62575;DHT22;70119;45.638;11.714;2023-09-19T12:53:34;32.40;45.70
62575;DHT22;70119;45.638;11.714;2023-09-19T12:56:05;32.50;45.60
62575;DHT22;70119;45.638;11.714;2023-09-19T12:58:34;32.40;45.80
62575;DHT22;70119;45.638;11.714;2023-09-19T13:01:01;32.50;45.60
62575;DHT22;70119;45.638;11.714;2023-09-19T13:03:30;32.50;45.60
62575;DHT22;70119;45.638;11.714;2023-09-19T13:06:02;32.50;45.60
62575;DHT22;70119;45.638;11.714;2023-09-19T13:11:14;32.50;45.60
62575;DHT22;70119;45.638;11.714;2023-09-19T13:13:46;32.50;45.50
62575;DHT22;70119;45.638;11.714;2023-09-19T13:16:21;32.50;45.60
62575;DHT22;70119;45.638;11.714;2023-09-19T13:18:53;32.40;45.60
62575;DHT22;70119;45.638;11.714;2023-09-19T13:21:31;32.40;45.60
62575;DHT22;70119;45.638;11.714;2023-09-19T13:24:22;32.40;45.50
62575;DHT22;70119;45.638;11.714;2023-09-19T13:26:49;32.50;45.40
62575;DHT22;70119;45.638;11.714;2023-09-19T13:29:15;32.40;45.50
62575;DHT22;70119;45.638;11.714;2023-09-19T13:31:51;32.40;45.60
62575;DHT22;70119;45.638;11.714;2023-09-19T13:34:21;32.40;45.60
62575;DHT22;70119;45.638;11.714;2023-09-19T13:36:53;32.40;45.60
62575;DHT22;70119;45.638;11.714;2023-09-19T13:39:24;32.40;45.60
62575;DHT22;70119;45.638;11.714;2023-09-19T13:41:50;32.40;45.60
62575;DHT22;70119;45.638;11.714;2023-09-19T13:44:17;32.30;45.60
62575;DHT22;70119;45.638;11.714;2023-09-19T13:46:43;32.40;45.60
62575;DHT22;70119;45.638;11.714;2023-09-19T13:49:11;32.40;45.60
62575;DHT22;70119;45.638;11.714;2023-09-19T13:51:37;32.30;45.60
62575;DHT22;70119;45.638;11.714;2023-09-19T13:54:03;32.40;45.60
62575;DHT22;70119;45.638;11.714;2023-09-19T13:56:29;32.40;45.60
62575;DHT22;70119;45.638;11.714;2023-09-19T13:58:55;32.40;45.60
62575;DHT22;70119;45.638;11.714;2023-09-19T14:01:21;32.40;45.50
62575;DHT22;70119;45.638;11.714;2023-09-19T14:03:47;32.40;45.50
62575;DHT22;70119;45.638;11.714;2023-09-19T14:06:17;32.40;45.40
62575;DHT22;70119;45.638;11.714;2023-09-19T14:08:44;32.40;45.50
62575;DHT22;70119;45.638;11.714;2023-09-19T14:11:15;32.40;45.40
62575;DHT22;70119;45.638;11.714;2023-09-19T14:13:41;32.40;45.40
62575;DHT22;70119;45.638;11.714;2023-09-19T14:16:12;32.40;45.50
62575;DHT22;70119;45.638;11.714;2023-09-19T14:18:38;32.40;45.40
62575;DHT22;70119;45.638;11.714;2023-09-19T14:21:05;32.40;45.50
62575;DHT22;70119;45.638;11.714;2023-09-19T14:23:40;32.40;45.40
62575;DHT22;70119;45.638;11.714;2023-09-19T14:26:08;32.50;45.40
62575;DHT22;70119;45.638;11.714;2023-09-19T14:28:34;32.40;45.50
62575;DHT22;70119;45.638;11.714;2023-09-19T14:31:07;32.40;45.50
62575;DHT22;70119;45.638;11.714;2023-09-19T14:33:33;32.50;45.50
62575;DHT22;70119;45.638;11.714;2023-09-19T14:36:06;32.40;45.40
62575;DHT22;70119;45.638;11.714;2023-09-19T14:38:33;32.50;45.40
62575;DHT22;70119;45.638;11.714;2023-09-19T14:41:03;32.50;45.40
62575;DHT22;70119;45.638;11.714;2023-09-19T14:43:30;32.50;45.30
62575;DHT22;70119;45.638;11.714;2023-09-19T14:46:05;32.60;45.40
62575;DHT22;70119;45.638;11.714;2023-09-19T14:48:36;32.60;45.30
62575;DHT22;70119;45.638;11.714;2023-09-19T14:51:08;32.60;45.20
62575;DHT22;70119;45.638;11.714;2023-09-19T14:53:35;32.50;45.20
62575;DHT22;70119;45.638;11.714;2023-09-19T14:56:04;32.50;45.20
62575;DHT22;70119;45.638;11.714;2023-09-19T14:58:33;32.50;45.30
62575;DHT22;70119;45.638;11.714;2023-09-19T15:01:09;32.50;45.20
62575;DHT22;70119;45.638;11.714;2023-09-19T15:03:36;32.40;45.10
62575;DHT22;70119;45.638;11.714;2023-09-19T15:06:04;32.40;45.20
62575;DHT22;70119;45.638;11.714;2023-09-19T15:08:36;32.40;45.20
62575;DHT22;70119;45.638;11.714;2023-09-19T15:11:06;32.40;45.20
62575;DHT22;70119;45.638;11.714;2023-09-19T15:13:33;32.40;45.20
62575;DHT22;70119;45.638;11.714;2023-09-19T15:16:03;32.40;45.10
62575;DHT22;70119;45.638;11.714;2023-09-19T15:18:30;32.40;45.00
62575;DHT22;70119;45.638;11.714;2023-09-19T15:21:08;32.40;45.00
62575;DHT22;70119;45.638;11.714;2023-09-19T15:23:35;32.30;45.00
62575;DHT22;70119;45.638;11.714;2023-09-19T15:26:06;32.40;45.00
62575;DHT22;70119;45.638;11.714;2023-09-19T15:28:33;32.40;44.80
62575;DHT22;70119;45.638;11.714;2023-09-19T15:31:04;32.40;44.80
62575;DHT22;70119;45.638;11.714;2023-09-19T15:33:31;32.30;44.80
62575;DHT22;70119;45.638;11.714;2023-09-19T15:36:09;32.30;44.90
62575;DHT22;70119;45.638;11.714;2023-09-19T15:41:20;32.30;44.80
62575;DHT22;70119;45.638;11.714;2023-09-19T15:43:46;32.30;45.10
62575;DHT22;70119;45.638;11.714;2023-09-19T15:46:12;32.30;45.10
62575;DHT22;70119;45.638;11.714;2023-09-19T15:48:39;32.30;45.10
62575;DHT22;70119;45.638;11.714;2023-09-19T15:51:05;32.30;45.10
62575;DHT22;70119;45.638;11.714;2023-09-19T15:53:51;32.30;45.00
62575;DHT22;70119;45.638;11.714;2023-09-19T15:56:19;32.30;44.60
62575;DHT22;70119;45.638;11.714;2023-09-19T15:58:54;32.30;44.60
62575;DHT22;70119;45.638;11.714;2023-09-19T16:01:20;32.30;44.50
62575;DHT22;70119;45.638;11.714;2023-09-19T16:03:49;32.30;44.50
62575;DHT22;70119;45.638;11.714;2023-09-19T16:06:20;32.40;44.40
62575;DHT22;70119;45.638;11.714;2023-09-19T16:08:55;32.40;44.40
62575;DHT22;70119;45.638;11.714;2023-09-19T16:11:27;32.30;44.30
62575;DHT22;70119;45.638;11.714;2023-09-19T16:13:54;32.30;44.20
62575;DHT22;70119;45.638;11.714;2023-09-19T16:16:21;32.40;44.10
62575;DHT22;70119;45.638;11.714;2023-09-19T16:18:49;32.30;44.20